createdAt,value
2023-04-14T00:00:33.352Z,13.57
2023-04-14T00:03:17.568Z,13.43
2023-04-14T00:05:46.377Z,13.41
2023-04-14T00:08:14.715Z,13.47
2023-04-14T00:10:43.444Z,13.56
2023-04-14T00:13:13.224Z,13.98
2023-04-14T00:15:42.461Z,13.67
2023-04-14T00:18:10.760Z,13.53
2023-04-14T00:20:40.112Z,13.57
2023-04-14T00:23:08.453Z,13.53
2023-04-14T00:25:37.120Z,13.66
2023-04-14T00:28:05.409Z,13.49
2023-04-14T00:30:35.426Z,13.99
2023-04-14T00:33:03.732Z,13.71
2023-04-14T00:35:32.905Z,14.00
2023-04-14T00:38:01.079Z,13.79
2023-04-14T00:40:30.582Z,14.20
2023-04-14T00:42:58.702Z,13.60
2023-04-14T00:45:27.504Z,13.62
2023-04-14T00:47:57.444Z,13.59
2023-04-14T00:50:26.053Z,13.26
2023-04-14T00:52:54.281Z,13.37
2023-04-14T00:55:22.997Z,13.41
2023-04-14T00:57:51.641Z,13.44
2023-04-14T01:00:20.378Z,13.41
2023-04-14T01:02:48.702Z,13.20
2023-04-14T01:05:19.128Z,13.72
2023-04-14T01:07:48.444Z,13.44
2023-04-14T01:10:17.153Z,13.30
2023-04-14T01:13:03.724Z,13.80
2023-04-14T01:15:37.064Z,13.36
2023-04-14T01:18:12.038Z,13.30
2023-04-14T01:20:43.809Z,13.23
2023-04-14T01:23:14.708Z,13.14
2023-04-14T01:26:08.091Z,13.75
2023-04-14T01:28:47.307Z,13.54
2023-04-14T01:31:28.482Z,13.23
2023-04-14T01:34:00.294Z,13.34
2023-04-14T01:36:34.397Z,13.16
2023-04-14T01:39:03.595Z,13.12
2023-04-14T01:41:33.538Z,13.45
2023-04-14T01:44:03.158Z,13.26
2023-04-14T01:46:34.214Z,13.03
2023-04-14T01:49:02.713Z,12.38
2023-04-14T01:51:32.255Z,12.66
2023-04-14T01:54:00.862Z,12.60
2023-04-14T01:56:29.573Z,12.65
2023-04-14T01:58:59.099Z,13.13
2023-04-14T02:01:29.230Z,13.19
2023-04-14T02:03:59.686Z,13.44
2023-04-14T02:06:28.630Z,12.90
2023-04-14T02:08:57.247Z,12.95
2023-04-14T02:11:26.375Z,13.05
2023-04-14T02:13:56.159Z,13.21
2023-04-14T02:16:25.997Z,13.12
2023-04-14T02:18:54.310Z,13.03
2023-04-14T02:21:25.897Z,13.43
2023-04-14T02:23:53.997Z,12.99
2023-04-14T02:26:23.629Z,13.46
2023-04-14T02:28:55.953Z,13.71
2023-04-14T02:31:26.792Z,13.85
2023-04-14T02:33:56.024Z,13.67
2023-04-14T02:36:32.501Z,14.01
2023-04-14T02:39:03.556Z,13.92
2023-04-14T02:41:32.750Z,13.72
2023-04-14T02:44:07.008Z,14.01
2023-04-14T02:46:38.654Z,14.03
2023-04-14T02:49:07.329Z,14.53
2023-04-14T02:51:37.850Z,13.84
2023-04-14T02:54:07.150Z,13.60
2023-04-14T02:56:36.147Z,13.42
2023-04-14T02:59:04.798Z,13.35
2023-04-14T03:01:33.398Z,13.06
2023-04-14T03:04:01.924Z,12.96
2023-04-14T03:06:31.734Z,12.82
2023-04-14T03:09:01.804Z,13.05
2023-04-14T03:11:30.918Z,12.71
2023-04-14T03:14:00.376Z,12.94
2023-04-14T03:16:30.324Z,13.08
2023-04-14T03:18:59.912Z,13.31
2023-04-14T03:21:30.218Z,13.02
2023-04-14T03:23:58.994Z,13.39
2023-04-14T03:26:29.598Z,13.64
2023-04-14T03:28:58.682Z,13.47
2023-04-14T03:31:31.662Z,13.80
2023-04-14T03:34:01.555Z,13.79
2023-04-14T03:36:31.167Z,13.75
2023-04-14T03:39:01.675Z,13.77
2023-04-14T03:41:34.347Z,13.99
2023-04-14T03:44:03.758Z,13.60
2023-04-14T03:46:32.227Z,13.35
2023-04-14T03:49:02.441Z,13.38
2023-04-14T03:51:33.504Z,13.66
2023-04-14T03:54:02.544Z,13.40
2023-04-14T03:56:32.776Z,13.56
2023-04-14T03:59:01.794Z,13.43
2023-04-14T04:01:30.669Z,13.28
2023-04-14T04:03:59.561Z,13.54
2023-04-14T04:06:28.437Z,13.42
2023-04-14T04:08:57.374Z,13.61
2023-04-14T04:11:27.495Z,13.76
2023-04-14T04:13:58.490Z,13.81
2023-04-14T04:16:29.196Z,13.86
2023-04-14T04:18:58.160Z,13.67
2023-04-14T04:21:28.454Z,13.90
2023-04-14T04:23:57.667Z,13.82
2023-04-14T04:26:26.644Z,13.83
2023-04-14T04:28:58.339Z,13.88
2023-04-14T04:31:28.994Z,13.90
2023-04-14T04:33:58.217Z,13.67
2023-04-14T04:36:27.884Z,13.71
2023-04-14T04:38:57.130Z,13.53
2023-04-14T04:41:26.363Z,13.69
2023-04-14T04:43:54.786Z,13.45
2023-04-14T04:46:43.892Z,14.15
2023-04-14T04:49:12.152Z,13.47
2023-04-14T04:51:40.877Z,13.26
2023-04-14T04:54:09.108Z,13.32
2023-04-14T04:56:37.895Z,13.31
2023-04-14T04:59:06.994Z,13.47
2023-04-14T05:01:36.970Z,13.59
2023-04-14T05:04:05.571Z,13.44
2023-04-14T05:06:37.161Z,13.93
2023-04-14T05:09:05.474Z,14.74
2023-04-14T05:11:34.241Z,14.09
2023-04-14T05:14:02.934Z,14.50
2023-04-14T05:16:31.628Z,14.67
2023-04-14T05:19:01.384Z,15.23
2023-04-14T05:21:30.031Z,14.89
2023-04-14T05:23:58.366Z,14.62
2023-04-14T05:26:48.854Z,14.42
2023-04-14T05:29:15.408Z,13.79
2023-04-14T05:31:43.894Z,13.94
2023-04-14T05:34:13.502Z,14.53
2023-04-14T05:36:41.960Z,14.06
2023-04-14T05:39:10.694Z,13.71
2023-04-14T05:41:39.163Z,13.81
2023-04-14T05:44:07.323Z,14.08
2023-04-14T05:46:35.901Z,13.69
2023-04-14T05:49:05.044Z,13.39
2023-04-14T05:51:34.914Z,13.85
2023-04-14T05:54:03.337Z,13.17
2023-04-14T05:56:31.964Z,12.63
2023-04-14T05:59:00.598Z,13.17
2023-04-14T06:01:29.177Z,12.76
2023-04-14T06:03:57.516Z,12.91
2023-04-14T06:06:26.375Z,12.98
2023-04-14T06:08:56.485Z,12.88
2023-04-14T06:11:25.213Z,11.96
2023-04-14T06:13:53.659Z,11.48
2023-04-14T06:16:22.415Z,11.95
2023-04-14T06:18:50.789Z,12.30
2023-04-14T06:21:19.462Z,11.86
2023-04-14T06:23:47.694Z,12.22
2023-04-14T06:26:45.121Z,12.55
2023-04-14T06:29:13.340Z,12.61
2023-04-14T06:31:41.942Z,12.79
2023-04-14T06:34:10.284Z,12.35
2023-04-14T06:36:38.929Z,12.92
2023-04-14T06:39:07.198Z,13.23
2023-04-14T06:41:37.119Z,14.43
2023-04-14T06:44:05.562Z,14.30
2023-04-14T06:46:36.338Z,14.56
2023-04-14T06:49:04.790Z,14.63
2023-04-14T06:51:35.043Z,15.01
2023-04-14T06:54:03.715Z,14.37
2023-04-14T06:56:32.475Z,15.28
2023-04-14T06:59:02.025Z,16.69
2023-04-14T07:01:30.533Z,16.32
2023-04-14T07:03:59.104Z,17.06
2023-04-14T07:06:27.995Z,17.41
2023-04-14T07:08:56.397Z,17.06
2023-04-14T07:11:24.885Z,16.81
2023-04-14T07:13:53.136Z,16.93
2023-04-14T07:16:23.253Z,18.13
2023-04-14T07:18:51.714Z,18.27
2023-04-14T07:21:20.399Z,17.17
2023-04-14T07:23:48.764Z,15.93
2023-04-14T07:26:17.273Z,15.39
2023-04-14T07:28:45.461Z,15.17
2023-04-14T07:31:13.953Z,14.60
2023-04-14T07:33:43.639Z,15.26
2023-04-14T07:36:12.261Z,15.26
2023-04-14T07:38:52.431Z,15.53
2023-04-14T07:41:21.271Z,14.62
2023-04-14T07:43:49.598Z,14.52
2023-04-14T07:46:18.116Z,14.74
2023-04-14T07:48:47.931Z,14.91
2023-04-14T07:51:16.710Z,14.46
2023-04-14T07:53:45.244Z,14.76
2023-04-14T07:56:14.281Z,15.08
2023-04-14T07:58:42.483Z,14.31
2023-04-14T08:01:11.029Z,14.97
2023-04-14T08:03:41.306Z,15.14
2023-04-14T08:06:12.832Z,16.50
2023-04-14T08:08:41.022Z,15.32
2023-04-14T08:11:09.532Z,15.29
2023-04-14T08:13:37.744Z,15.90
2023-04-14T08:16:06.511Z,15.38
2023-04-14T08:18:34.802Z,14.80
2023-04-14T08:21:03.292Z,14.52
2023-04-14T08:23:32.836Z,15.25
2023-04-14T08:26:01.379Z,15.39
2023-04-14T08:28:29.828Z,15.48
2023-04-14T08:30:59.709Z,14.90
2023-04-14T08:33:27.868Z,14.82
2023-04-14T08:35:59.712Z,14.65
2023-04-14T08:38:29.416Z,15.29
2023-04-14T08:41:08.412Z,15.78
2023-04-14T08:43:36.745Z,15.35
2023-04-14T08:46:06.416Z,15.39
2023-04-14T08:48:37.058Z,16.08
2023-04-14T08:51:08.836Z,16.71
2023-04-14T08:53:42.893Z,16.96
2023-04-14T08:56:14.218Z,16.48
2023-04-14T08:58:43.137Z,16.60
2023-04-14T09:01:13.840Z,16.99
2023-04-14T09:03:52.997Z,18.31
2023-04-14T09:06:26.430Z,18.89
2023-04-14T09:08:55.066Z,19.71
2023-04-14T09:11:25.010Z,19.71
2023-04-14T09:13:54.837Z,20.06
2023-04-14T09:16:23.282Z,20.28
2023-04-14T09:18:55.540Z,21.93
2023-04-14T09:21:29.565Z,22.91
2023-04-14T09:24:23.573Z,23.74
2023-04-14T09:26:53.767Z,24.64
2023-04-14T09:29:21.955Z,25.73
2023-04-14T09:31:50.845Z,26.99
2023-04-14T09:34:20.379Z,25.08
2023-04-14T09:37:03.623Z,24.61
2023-04-14T09:39:32.504Z,23.56
2023-04-14T09:42:03.179Z,23.90
2023-04-14T09:44:31.734Z,23.50
2023-04-14T09:47:01.850Z,22.20
2023-04-14T09:49:31.222Z,22.55
2023-04-14T09:52:05.252Z,23.14
2023-04-14T09:54:33.703Z,22.70
2023-04-14T09:57:06.337Z,23.04
2023-04-14T09:59:35.593Z,22.14
2023-04-14T10:02:06.216Z,22.24
2023-04-14T10:04:36.033Z,20.80
2023-04-14T10:07:09.062Z,21.11
2023-04-14T10:09:38.870Z,20.69
2023-04-14T10:12:21.698Z,21.37
2023-04-14T10:14:52.134Z,20.68
2023-04-14T10:17:29.141Z,20.29
2023-04-14T10:19:58.344Z,19.48
2023-04-14T10:22:27.889Z,19.25
2023-04-14T10:24:56.428Z,19.82
2023-04-14T10:27:30.885Z,20.59
2023-04-14T10:30:02.592Z,20.75
2023-04-14T10:32:37.992Z,20.34
2023-04-14T10:35:10.959Z,20.07
2023-04-14T10:37:39.727Z,20.08
2023-04-14T10:40:08.702Z,20.42
2023-04-14T10:42:57.418Z,20.99
2023-04-14T10:45:25.606Z,19.73
2023-04-14T10:47:54.217Z,20.05
2023-04-14T10:50:26.057Z,20.36
2023-04-14T10:52:59.048Z,19.17
2023-04-14T10:55:28.173Z,18.88
2023-04-14T10:58:06.250Z,18.54
2023-04-14T11:00:39.023Z,17.38
2023-04-14T11:03:12.616Z,17.30
2023-04-14T11:05:44.274Z,18.21
2023-04-14T11:08:17.503Z,17.90
2023-04-14T11:10:52.415Z,17.93
2023-04-14T11:13:22.295Z,16.91
2023-04-14T11:15:53.929Z,17.73
2023-04-14T11:18:37.235Z,16.97
2023-04-14T11:21:12.147Z,17.40
2023-04-14T11:23:41.000Z,17.76
2023-04-14T11:26:10.770Z,18.13
2023-04-14T11:28:43.415Z,17.70
2023-04-14T11:31:13.039Z,17.93
2023-04-14T11:33:42.661Z,18.27
2023-04-14T11:36:13.031Z,18.24
2023-04-14T11:38:41.721Z,18.94
2023-04-14T11:41:10.500Z,18.51
2023-04-14T11:43:46.512Z,18.45
2023-04-14T11:46:15.620Z,18.28
2023-04-14T11:48:44.273Z,19.36
2023-04-14T11:51:12.498Z,19.57
2023-04-14T11:53:41.279Z,19.09
2023-04-14T11:56:09.514Z,18.67
2023-04-14T11:58:38.131Z,18.65
2023-04-14T12:01:07.794Z,19.75
2023-04-14T12:03:39.375Z,19.01
2023-04-14T12:06:08.191Z,18.25
2023-04-14T12:08:37.693Z,17.49
2023-04-14T12:11:15.730Z,18.49
2023-04-14T12:13:45.008Z,18.80
2023-04-14T12:16:15.359Z,18.74
2023-04-14T12:18:44.275Z,18.48
2023-04-14T12:21:18.137Z,19.01
2023-04-14T12:23:49.576Z,19.06
2023-04-14T12:26:18.462Z,18.24
2023-04-14T12:28:47.257Z,18.88
2023-04-14T12:31:17.339Z,20.24
2023-04-14T12:33:45.892Z,19.23
2023-04-14T12:36:15.395Z,19.21
2023-04-14T12:38:49.001Z,19.58
2023-04-14T12:41:23.215Z,19.69
2023-04-14T12:43:51.757Z,19.47
2023-04-14T12:46:32.807Z,20.19
2023-04-14T12:49:01.616Z,18.77
2023-04-14T12:51:29.914Z,19.55
2023-04-14T12:54:07.484Z,19.03
2023-04-14T12:56:35.728Z,18.58
2023-04-14T12:59:05.228Z,18.40
2023-04-14T13:01:35.000Z,18.56
2023-04-14T13:04:05.479Z,18.25
2023-04-14T13:06:34.049Z,18.19
2023-04-14T13:09:03.139Z,18.96
2023-04-14T13:11:31.807Z,18.49
2023-04-14T13:14:00.329Z,17.76
2023-04-14T13:16:28.537Z,17.89
2023-04-14T13:18:59.368Z,19.57
2023-04-14T13:21:27.873Z,19.65
2023-04-14T13:23:56.533Z,18.52
2023-04-14T13:26:24.760Z,18.11
2023-04-14T13:28:53.264Z,18.89
2023-04-14T13:31:21.617Z,18.19
2023-04-14T13:33:50.138Z,17.75
2023-04-14T13:36:19.705Z,18.06
2023-04-14T13:38:48.452Z,18.08
2023-04-14T13:41:19.584Z,18.05
2023-04-14T13:43:48.443Z,17.42
2023-04-14T13:46:18.524Z,17.46
2023-04-14T13:48:47.716Z,17.27
2023-04-14T13:51:15.944Z,17.81
2023-04-14T13:53:47.006Z,17.83
2023-04-14T13:56:15.205Z,17.89
2023-04-14T13:58:44.022Z,17.76
2023-04-14T14:01:12.789Z,17.13
2023-04-14T14:03:42.368Z,17.80
2023-04-14T14:06:11.164Z,18.09
2023-04-14T14:08:42.223Z,17.58
2023-04-14T14:11:12.580Z,17.52
2023-04-14T14:13:41.170Z,17.92
2023-04-14T14:16:10.545Z,18.63
2023-04-14T14:18:40.030Z,17.39
2023-04-14T14:21:08.459Z,17.54
2023-04-14T14:23:36.892Z,18.06
2023-04-14T14:26:05.279Z,17.20
2023-04-14T14:28:35.186Z,18.19
2023-04-14T14:31:04.969Z,18.12
2023-04-14T14:33:34.591Z,19.11
2023-04-14T14:36:02.793Z,18.29
2023-04-14T14:38:31.426Z,17.36
2023-04-14T14:40:59.687Z,17.92
2023-04-14T14:43:28.227Z,18.28
2023-04-14T14:45:57.899Z,18.32
2023-04-14T14:48:26.423Z,17.66
2023-04-14T14:50:54.610Z,17.22
2023-04-14T14:53:23.086Z,17.60
2023-04-14T14:55:51.307Z,17.56
2023-04-14T14:58:19.802Z,17.06
2023-04-14T15:00:48.024Z,17.00
2023-04-14T15:03:18.001Z,17.82
2023-04-14T15:05:46.598Z,17.53
2023-04-14T15:08:15.157Z,17.86
2023-04-14T15:10:43.378Z,17.09
2023-04-14T15:13:12.449Z,17.57
2023-04-14T15:15:40.712Z,17.60
2023-04-14T15:18:09.446Z,17.46
2023-04-14T15:20:39.434Z,17.71
2023-04-14T15:23:08.272Z,16.87
2023-04-14T15:25:36.595Z,17.35
2023-04-14T15:28:05.777Z,17.05
2023-04-14T15:30:34.096Z,16.32
2023-04-14T15:33:02.563Z,16.61
2023-04-14T15:35:30.746Z,16.81
2023-04-14T15:38:00.616Z,17.41
2023-04-14T15:40:28.814Z,16.72
2023-04-14T15:42:57.382Z,16.63
2023-04-14T15:45:25.903Z,17.32
2023-04-14T15:47:54.581Z,16.92
2023-04-14T15:50:22.799Z,17.05
2023-04-14T15:52:52.067Z,17.52
2023-04-14T15:55:21.933Z,17.22
2023-04-14T15:57:50.984Z,16.69
2023-04-14T16:00:20.208Z,16.76
2023-04-14T16:02:48.846Z,16.64
2023-04-14T16:05:17.439Z,17.27
2023-04-14T16:07:46.480Z,16.50
2023-04-14T16:10:15.752Z,16.48
2023-04-14T16:12:45.509Z,17.41
2023-04-14T16:15:13.787Z,17.38
2023-04-14T16:17:42.954Z,16.94
2023-04-14T16:20:12.691Z,17.23
2023-04-14T16:22:41.222Z,16.74
2023-04-14T16:25:10.378Z,16.82
2023-04-14T16:27:39.075Z,16.84
2023-04-14T16:30:09.727Z,17.15
2023-04-14T16:32:38.330Z,16.71
2023-04-14T16:35:07.530Z,16.35
2023-04-14T16:37:36.329Z,16.54
2023-04-14T16:40:05.077Z,16.54
2023-04-14T16:42:34.159Z,16.77
2023-04-14T16:45:02.436Z,16.49
2023-04-14T16:47:32.387Z,17.04
2023-04-14T16:50:00.856Z,16.56
2023-04-14T16:52:31.526Z,16.90
2023-04-14T16:55:03.244Z,16.61
2023-04-14T16:57:32.764Z,16.11
2023-04-14T17:00:01.198Z,16.32
2023-04-14T17:02:32.273Z,15.65
2023-04-14T17:05:00.843Z,15.13
2023-04-14T17:07:29.581Z,15.31
2023-04-14T17:09:57.910Z,15.61
2023-04-14T17:12:26.479Z,15.79
2023-04-14T17:14:54.752Z,15.87
2023-04-14T17:17:27.254Z,16.65
2023-04-14T17:19:57.052Z,16.30
2023-04-14T17:22:25.954Z,15.77
2023-04-14T17:24:54.567Z,16.13
2023-04-14T17:27:23.186Z,16.10
2023-04-14T17:29:51.361Z,16.01
2023-04-14T17:32:19.925Z,15.66
2023-04-14T17:34:49.233Z,16.22
2023-04-14T17:37:19.241Z,15.76
2023-04-14T17:39:49.245Z,15.31
2023-04-14T17:42:17.789Z,15.16
2023-04-14T17:44:46.118Z,14.77
2023-04-14T17:47:15.692Z,15.58
2023-04-14T17:49:44.050Z,15.15
2023-04-14T17:52:12.742Z,14.94
2023-04-14T17:54:42.334Z,15.77
2023-04-14T17:57:13.103Z,15.37
2023-04-14T17:59:41.763Z,15.41
2023-04-14T18:02:14.113Z,15.52
2023-04-14T18:04:42.792Z,14.94
2023-04-14T18:07:11.441Z,14.38
2023-04-14T18:09:39.698Z,14.52
2023-04-14T18:12:10.823Z,14.91
2023-04-14T18:14:39.607Z,15.23
2023-04-14T18:17:08.203Z,14.70
2023-04-14T18:19:36.672Z,14.84
2023-04-14T18:22:05.190Z,14.98
2023-04-14T18:29:38.685Z,15.00
2023-04-14T18:32:07.416Z,14.55
2023-04-14T18:34:35.998Z,14.55
2023-04-14T18:37:04.789Z,15.04
2023-04-14T18:39:34.478Z,14.65
2023-04-14T18:42:03.526Z,14.48
2023-04-14T18:44:31.811Z,14.53
2023-04-14T18:47:01.676Z,14.77
2023-04-14T18:49:30.365Z,14.60
2023-04-14T18:51:58.853Z,14.58
2023-04-14T18:54:27.194Z,15.14
2023-04-14T18:56:55.795Z,14.56
2023-04-14T18:59:24.783Z,14.88
2023-04-14T19:01:53.812Z,14.77
2023-04-14T19:04:23.945Z,14.67
2023-04-14T19:06:52.479Z,14.61
2023-04-14T19:09:21.070Z,14.63
2023-04-14T19:11:49.913Z,14.24
2023-04-14T19:14:18.547Z,13.70
2023-04-14T19:16:47.304Z,14.60
2023-04-14T19:19:16.903Z,15.00
2023-04-14T19:21:47.124Z,15.42
2023-04-14T19:24:15.441Z,14.43
2023-04-14T19:26:43.898Z,13.98
2023-04-14T19:29:12.440Z,14.55
2023-04-14T19:31:41.040Z,14.25
2023-04-14T19:34:09.418Z,14.59
2023-04-14T19:36:41.332Z,14.03
2023-04-14T19:39:11.397Z,14.44
2023-04-14T19:41:40.045Z,14.03
2023-04-14T19:44:08.615Z,13.91
2023-04-14T19:46:37.481Z,14.62
2023-04-14T19:49:07.376Z,13.95
2023-04-14T19:51:36.701Z,14.05
2023-04-14T19:54:05.642Z,14.29
2023-04-14T19:56:35.834Z,14.92
2023-04-14T19:59:08.250Z,14.03
2023-04-14T20:01:38.931Z,14.35
2023-04-14T20:04:12.242Z,14.90
2023-04-14T20:06:42.878Z,14.18
2023-04-14T20:09:11.258Z,14.57
2023-04-14T20:11:41.240Z,14.88
2023-04-14T20:14:10.805Z,14.87
2023-04-14T20:16:39.775Z,14.23
2023-04-14T20:19:09.040Z,14.61
2023-04-14T20:21:37.664Z,14.36
2023-04-14T20:24:06.315Z,14.28
2023-04-14T20:26:35.277Z,14.03
2023-04-14T20:29:05.447Z,14.24
2023-04-14T20:31:34.298Z,14.13
2023-04-14T20:34:04.249Z,14.36
2023-04-14T20:36:36.092Z,14.13
2023-04-14T20:39:06.103Z,14.48
2023-04-14T20:41:36.529Z,14.49
2023-04-14T20:44:06.399Z,14.94
2023-04-14T20:46:35.454Z,14.80
2023-04-14T20:49:04.220Z,14.40
2023-04-14T20:51:33.375Z,14.50
2023-04-14T20:54:01.995Z,13.78
2023-04-14T20:56:30.951Z,14.12
2023-04-14T20:59:00.539Z,14.20
2023-04-14T21:01:31.481Z,14.29
2023-04-14T21:04:00.088Z,14.25
2023-04-14T21:06:31.142Z,13.83
2023-04-14T21:09:01.889Z,14.38
2023-04-14T21:11:30.954Z,13.95
2023-04-14T21:15:47.322Z,14.28
2023-04-14T21:16:49.572Z,14.76
2023-04-14T21:19:19.536Z,14.53
2023-04-14T21:21:48.134Z,14.10
2023-04-14T21:24:16.330Z,14.22
2023-04-14T21:26:44.857Z,14.14
2023-04-14T21:29:13.316Z,13.90
2023-04-14T21:31:41.842Z,14.10
2023-04-14T21:34:12.087Z,14.83
2023-04-14T21:36:41.265Z,14.43
2023-04-14T21:39:10.074Z,14.27
2023-04-14T21:41:38.646Z,14.66
2023-04-14T21:44:07.582Z,14.50
2023-04-14T21:46:36.821Z,14.21
2023-04-14T21:49:05.112Z,14.87
2023-04-14T21:51:35.069Z,14.97
2023-04-14T21:54:03.214Z,14.40
2023-04-14T21:56:31.685Z,14.64
2023-04-14T21:59:00.026Z,14.62
2023-04-14T22:01:29.928Z,14.66
2023-04-14T22:03:58.648Z,14.74
2023-04-14T22:06:27.825Z,14.35
2023-04-14T22:08:57.486Z,14.79
2023-04-14T22:11:26.062Z,14.33
2023-04-14T22:13:55.546Z,14.14
2023-04-14T22:16:24.163Z,14.37
2023-04-14T22:18:52.373Z,14.18
2023-04-14T22:21:20.925Z,14.54
2023-04-14T22:23:49.121Z,14.24
2023-04-14T22:26:19.719Z,14.97
2023-04-14T22:28:47.881Z,14.64
2023-04-14T22:31:16.811Z,14.53
2023-04-14T22:33:45.020Z,14.94
2023-04-14T22:36:13.548Z,14.52
2023-04-14T22:38:42.569Z,14.57
2023-04-14T22:41:11.021Z,14.39
2023-04-14T22:43:40.962Z,15.00
2023-04-14T22:46:09.544Z,14.09
2023-04-14T22:48:37.670Z,14.30
2023-04-14T22:51:06.401Z,14.25
2023-04-14T22:53:34.555Z,14.67
2023-04-14T22:56:03.785Z,14.86
2023-04-14T22:58:39.008Z,14.95
2023-04-14T23:01:21.261Z,14.93
2023-04-14T23:03:52.578Z,14.99
2023-04-14T23:06:36.104Z,14.57
2023-04-14T23:09:05.673Z,14.57
2023-04-14T23:11:34.294Z,14.57
2023-04-14T23:14:02.788Z,14.67
2023-04-14T23:16:32.762Z,14.88
2023-04-14T23:19:01.389Z,14.12
2023-04-14T23:21:30.340Z,14.08
2023-04-14T23:23:58.500Z,14.29
2023-04-14T23:26:27.566Z,14.28
2023-04-14T23:28:55.892Z,14.19
2023-04-14T23:31:24.443Z,14.06
2023-04-14T23:33:53.968Z,14.64
2023-04-14T23:36:22.660Z,14.47
2023-04-14T23:38:50.869Z,14.64
2023-04-14T23:41:19.680Z,14.77
2023-04-14T23:43:49.654Z,14.15
2023-04-14T23:46:18.592Z,14.57
2023-04-14T23:48:47.501Z,14.64
2023-04-14T23:51:22.860Z,14.98
2023-04-14T23:53:51.608Z,14.56
2023-04-14T23:56:20.138Z,14.36
2023-04-14T23:58:48.650Z,14.44
